sensor_id;sensor_type;location;lat;lon;timestamp;pressure;altitude;pressure_sealevel;temperature;humidity
78717;BME280;68045;50.042;14.432;2023-06-22T00:01:14;98607.03;;;19.67;87.06
78717;BME280;68045;50.042;14.432;2023-06-22T00:05:15;98613.22;;;19.63;87.39
78717;BME280;68045;50.042;14.432;2023-06-22T00:09:15;98614.31;;;19.62;87.46
78717;BME280;68045;50.042;14.432;2023-06-22T00:13:17;98616.72;;;19.58;87.43
78717;BME280;68045;50.042;14.432;2023-06-22T00:17:18;98612.94;;;19.64;87.12
78717;BME280;68045;50.042;14.432;2023-06-22T00:21:19;98612.72;;;19.61;87.27
78717;BME280;68045;50.042;14.432;2023-06-22T00:25:23;98616.72;;;19.58;87.60
78717;BME280;68045;50.042;14.432;2023-06-22T00:29:24;98618.88;;;19.56;87.70
78717;BME280;68045;50.042;14.432;2023-06-22T00:33:25;98621.81;;;19.55;87.81
78717;BME280;68045;50.042;14.432;2023-06-22T00:37:26;98616.47;;;19.55;87.53
78717;BME280;68045;50.042;14.432;2023-06-22T00:41:30;98618.09;;;19.51;87.75
78717;BME280;68045;50.042;14.432;2023-06-22T00:45:32;98606.88;;;19.48;87.66
78717;BME280;68045;50.042;14.432;2023-06-22T00:49:32;98611.41;;;19.53;87.68
78717;BME280;68045;50.042;14.432;2023-06-22T00:53:34;98608.75;;;19.48;87.60
78717;BME280;68045;50.042;14.432;2023-06-22T00:57:36;98603.69;;;19.46;87.68
78717;BME280;68045;50.042;14.432;2023-06-22T01:01:37;98583.06;;;19.47;87.68
78717;BME280;68045;50.042;14.432;2023-06-22T01:05:41;98581.94;;;19.53;87.25
78717;BME280;68045;50.042;14.432;2023-06-22T01:09:59;98578.97;;;19.55;87.04
78717;BME280;68045;50.042;14.432;2023-06-22T01:14:12;98576.13;;;19.46;87.54
78717;BME280;68045;50.042;14.432;2023-06-22T01:18:17;98576.91;;;19.46;87.36
78717;BME280;68045;50.042;14.432;2023-06-22T01:22:20;98574.25;;;19.46;87.19
78717;BME280;68045;50.042;14.432;2023-06-22T01:26:28;98578.03;;;19.40;87.48
78717;BME280;68045;50.042;14.432;2023-06-22T01:30:31;98576.22;;;19.31;88.03
78717;BME280;68045;50.042;14.432;2023-06-22T01:34:38;98572.69;;;19.35;87.62
78717;BME280;68045;50.042;14.432;2023-06-22T01:38:41;98573.53;;;19.31;88.14
78717;BME280;68045;50.042;14.432;2023-06-22T01:42:42;98574.91;;;19.28;87.87
78717;BME280;68045;50.042;14.432;2023-06-22T01:46:44;98571.22;;;19.19;88.53
78717;BME280;68045;50.042;14.432;2023-06-22T01:50:45;98577.09;;;19.21;88.20
78717;BME280;68045;50.042;14.432;2023-06-22T01:54:46;98576.06;;;19.17;88.74
78717;BME280;68045;50.042;14.432;2023-06-22T01:58:53;98585.75;;;19.03;89.56
78717;BME280;68045;50.042;14.432;2023-06-22T02:03:02;98596.25;;;18.94;89.70
78717;BME280;68045;50.042;14.432;2023-06-22T02:07:12;98597.63;;;18.91;89.99
78717;BME280;68045;50.042;14.432;2023-06-22T02:11:15;98589.88;;;18.85;90.23
78717;BME280;68045;50.042;14.432;2023-06-22T02:15:17;98600.06;;;18.83;90.28
78717;BME280;68045;50.042;14.432;2023-06-22T02:19:24;98608.41;;;18.71;90.45
78717;BME280;68045;50.042;14.432;2023-06-22T02:23:27;98601.75;;;18.69;90.46
78717;BME280;68045;50.042;14.432;2023-06-22T02:27:28;98606.56;;;18.51;91.67
78717;BME280;68045;50.042;14.432;2023-06-22T02:31:29;98600.22;;;18.37;92.17
78717;BME280;68045;50.042;14.432;2023-06-22T02:35:31;98599.97;;;18.28;92.68
78717;BME280;68045;50.042;14.432;2023-06-22T02:39:32;98598.09;;;18.29;92.57
78717;BME280;68045;50.042;14.432;2023-06-22T02:43:33;98595.19;;;18.25;92.62
78717;BME280;68045;50.042;14.432;2023-06-22T02:47:33;98600.53;;;18.20;92.97
78717;BME280;68045;50.042;14.432;2023-06-22T02:51:35;98596.50;;;18.18;93.48
78717;BME280;68045;50.042;14.432;2023-06-22T02:55:37;98597.06;;;18.15;93.29
78717;BME280;68045;50.042;14.432;2023-06-22T02:59:40;98586.94;;;18.11;93.33
78717;BME280;68045;50.042;14.432;2023-06-22T03:03:44;98583.72;;;18.15;93.14
78717;BME280;68045;50.042;14.432;2023-06-22T03:07:45;98583.16;;;18.18;92.99
78717;BME280;68045;50.042;14.432;2023-06-22T03:11:46;98585.81;;;18.28;92.48
78717;BME280;68045;50.042;14.432;2023-06-22T03:15:47;98589.84;;;18.20;92.40
78717;BME280;68045;50.042;14.432;2023-06-22T03:19:48;98595.72;;;18.22;92.22
78717;BME280;68045;50.042;14.432;2023-06-22T03:23:49;98600.25;;;18.17;92.36
78717;BME280;68045;50.042;14.432;2023-06-22T03:27:51;98598.16;;;18.14;92.30
78717;BME280;68045;50.042;14.432;2023-06-22T03:31:52;98598.66;;;18.10;91.79
78717;BME280;68045;50.042;14.432;2023-06-22T03:35:53;98598.66;;;18.16;91.41
78717;BME280;68045;50.042;14.432;2023-06-22T03:39:55;98608.28;;;18.22;90.78
78717;BME280;68045;50.042;14.432;2023-06-22T03:43:56;98604.00;;;18.21;91.22
78717;BME280;68045;50.042;14.432;2023-06-22T03:47:57;98606.91;;;18.24;90.67
78717;BME280;68045;50.042;14.432;2023-06-22T03:51:58;98593.28;;;18.31;90.17
78717;BME280;68045;50.042;14.432;2023-06-22T03:55:59;98592.72;;;18.39;89.93
78717;BME280;68045;50.042;14.432;2023-06-22T04:00:00;98596.44;;;18.43;89.67
78717;BME280;68045;50.042;14.432;2023-06-22T04:04:01;98582.78;;;18.50;89.41
78717;BME280;68045;50.042;14.432;2023-06-22T04:08:02;98576.09;;;18.52;89.25
78717;BME280;68045;50.042;14.432;2023-06-22T04:12:04;98577.66;;;18.63;88.98
78717;BME280;68045;50.042;14.432;2023-06-22T04:16:05;98581.38;;;18.73;88.65
78717;BME280;68045;50.042;14.432;2023-06-22T04:20:06;98579.47;;;18.83;87.92
78717;BME280;68045;50.042;14.432;2023-06-22T04:24:07;98571.59;;;19.02;87.24
78717;BME280;68045;50.042;14.432;2023-06-22T04:28:08;98574.22;;;19.12;86.46
78717;BME280;68045;50.042;14.432;2023-06-22T04:32:13;98586.19;;;19.20;85.69
78717;BME280;68045;50.042;14.432;2023-06-22T04:36:14;98589.88;;;19.29;85.32
78717;BME280;68045;50.042;14.432;2023-06-22T04:40:15;98585.88;;;19.27;85.03
78717;BME280;68045;50.042;14.432;2023-06-22T04:44:18;98587.69;;;19.36;84.74
78717;BME280;68045;50.042;14.432;2023-06-22T04:48:25;98589.94;;;19.24;85.12
78717;BME280;68045;50.042;14.432;2023-06-22T04:52:27;98601.63;;;19.33;84.81
78717;BME280;68045;50.042;14.432;2023-06-22T04:56:28;98606.91;;;19.43;84.39
78717;BME280;68045;50.042;14.432;2023-06-22T05:00:30;98603.44;;;19.43;84.64
78717;BME280;68045;50.042;14.432;2023-06-22T05:04:31;98614.16;;;19.38;84.62
78717;BME280;68045;50.042;14.432;2023-06-22T05:08:32;98618.91;;;19.51;84.35
78717;BME280;68045;50.042;14.432;2023-06-22T05:12:33;98617.75;;;19.67;83.15
78717;BME280;68045;50.042;14.432;2023-06-22T05:16:35;98620.94;;;19.69;83.30
78717;BME280;68045;50.042;14.432;2023-06-22T05:20:36;98626.03;;;19.66;83.46
78717;BME280;68045;50.042;14.432;2023-06-22T05:24:37;98633.19;;;19.81;83.23
78717;BME280;68045;50.042;14.432;2023-06-22T05:28:38;98628.19;;;19.98;82.47
78717;BME280;68045;50.042;14.432;2023-06-22T05:32:39;98635.72;;;19.96;82.12
78717;BME280;68045;50.042;14.432;2023-06-22T05:36:40;98636.59;;;20.15;81.66
78717;BME280;68045;50.042;14.432;2023-06-22T05:40:44;98635.06;;;20.33;80.95
78717;BME280;68045;50.042;14.432;2023-06-22T05:44:45;98652.94;;;20.43;80.04
78717;BME280;68045;50.042;14.432;2023-06-22T05:48:47;98657.00;;;20.64;79.49
78717;BME280;68045;50.042;14.432;2023-06-22T05:52:48;98664.72;;;20.95;78.54
78717;BME280;68045;50.042;14.432;2023-06-22T05:56:49;98667.84;;;21.21;77.50
78717;BME280;68045;50.042;14.432;2023-06-22T06:00:50;98650.81;;;21.49;76.59
78717;BME280;68045;50.042;14.432;2023-06-22T06:04:51;98653.19;;;21.70;75.42
78717;BME280;68045;50.042;14.432;2023-06-22T06:08:53;98654.19;;;21.92;74.35
78717;BME280;68045;50.042;14.432;2023-06-22T06:12:54;98657.63;;;22.12;74.15
78717;BME280;68045;50.042;14.432;2023-06-22T06:16:55;98661.47;;;22.38;72.55
78717;BME280;68045;50.042;14.432;2023-06-22T06:20:56;98659.00;;;22.56;72.14
78717;BME280;68045;50.042;14.432;2023-06-22T06:24:57;98657.50;;;22.63;71.33
78717;BME280;68045;50.042;14.432;2023-06-22T06:29:00;98662.41;;;22.89;70.93
78717;BME280;68045;50.042;14.432;2023-06-22T06:33:01;98648.59;;;23.04;70.56
78717;BME280;68045;50.042;14.432;2023-06-22T06:37:01;98653.88;;;23.23;69.35
78717;BME280;68045;50.042;14.432;2023-06-22T06:41:03;98643.84;;;23.37;68.48
78717;BME280;68045;50.042;14.432;2023-06-22T06:45:05;98641.41;;;23.49;67.61
78717;BME280;68045;50.042;14.432;2023-06-22T06:49:07;98649.09;;;23.78;67.03
78717;BME280;68045;50.042;14.432;2023-06-22T06:53:08;98640.63;;;23.94;66.15
78717;BME280;68045;50.042;14.432;2023-06-22T06:57:08;98635.47;;;24.06;65.42
78717;BME280;68045;50.042;14.432;2023-06-22T07:01:14;98639.94;;;24.33;64.40
78717;BME280;68045;50.042;14.432;2023-06-22T07:05:15;98634.09;;;24.40;64.80
78717;BME280;68045;50.042;14.432;2023-06-22T07:09:16;98623.53;;;24.60;63.11
78717;BME280;68045;50.042;14.432;2023-06-22T07:13:16;98622.56;;;24.74;62.46
78717;BME280;68045;50.042;14.432;2023-06-22T07:17:18;98612.75;;;24.86;62.65
78717;BME280;68045;50.042;14.432;2023-06-22T07:21:19;98607.09;;;25.05;62.77
78717;BME280;68045;50.042;14.432;2023-06-22T07:25:20;98599.50;;;25.25;62.01
78717;BME280;68045;50.042;14.432;2023-06-22T07:29:21;98592.00;;;25.47;60.81
78717;BME280;68045;50.042;14.432;2023-06-22T07:33:22;98595.00;;;25.72;59.64
78717;BME280;68045;50.042;14.432;2023-06-22T07:37:23;98593.38;;;25.97;60.16
78717;BME280;68045;50.042;14.432;2023-06-22T07:41:24;98589.25;;;25.91;59.21
78717;BME280;68045;50.042;14.432;2023-06-22T07:45:25;98595.03;;;26.19;58.00
78717;BME280;68045;50.042;14.432;2023-06-22T07:49:27;98584.00;;;26.33;57.88
78717;BME280;68045;50.042;14.432;2023-06-22T07:53:28;98583.81;;;26.46;58.21
78717;BME280;68045;50.042;14.432;2023-06-22T07:57:29;98575.72;;;26.67;57.69
78717;BME280;68045;50.042;14.432;2023-06-22T08:01:34;98568.13;;;26.81;56.64
78717;BME280;68045;50.042;14.432;2023-06-22T08:05:35;98569.13;;;26.98;56.10
78717;BME280;68045;50.042;14.432;2023-06-22T08:09:36;98573.22;;;27.04;55.57
78717;BME280;68045;50.042;14.432;2023-06-22T08:13:37;98564.06;;;27.17;55.49
78717;BME280;68045;50.042;14.432;2023-06-22T08:17:38;98551.03;;;27.31;54.72
78717;BME280;68045;50.042;14.432;2023-06-22T08:21:39;98553.91;;;27.47;54.36
78717;BME280;68045;50.042;14.432;2023-06-22T08:25:40;98559.25;;;27.56;53.53
78717;BME280;68045;50.042;14.432;2023-06-22T08:29:41;98551.16;;;27.68;53.41
78717;BME280;68045;50.042;14.432;2023-06-22T08:33:46;98541.94;;;27.94;53.78
78717;BME280;68045;50.042;14.432;2023-06-22T08:37:48;98542.75;;;28.06;52.92
78717;BME280;68045;50.042;14.432;2023-06-22T08:41:53;98539.13;;;28.14;52.14
78717;BME280;68045;50.042;14.432;2023-06-22T08:45:53;98531.78;;;28.39;52.20
78717;BME280;68045;50.042;14.432;2023-06-22T08:49:54;98531.00;;;28.39;51.90
78717;BME280;68045;50.042;14.432;2023-06-22T08:53:55;98527.34;;;28.59;51.29
78717;BME280;68045;50.042;14.432;2023-06-22T08:57:56;98522.19;;;28.94;50.89
78717;BME280;68045;50.042;14.432;2023-06-22T09:01:57;98525.31;;;29.09;50.18
78717;BME280;68045;50.042;14.432;2023-06-22T09:05:58;98522.09;;;29.47;48.43
78717;BME280;68045;50.042;14.432;2023-06-22T09:09:59;98519.97;;;29.40;46.94
78717;BME280;68045;50.042;14.432;2023-06-22T09:14:00;98524.44;;;29.76;47.07
78717;BME280;68045;50.042;14.432;2023-06-22T09:18:00;98519.00;;;29.92;45.98
78717;BME280;68045;50.042;14.432;2023-06-22T09:22:02;98510.69;;;30.17;45.51
78717;BME280;68045;50.042;14.432;2023-06-22T09:26:04;98508.19;;;30.27;44.97
78717;BME280;68045;50.042;14.432;2023-06-22T09:30:05;98501.44;;;30.21;45.07
78717;BME280;68045;50.042;14.432;2023-06-22T09:34:07;98500.28;;;30.57;44.54
78717;BME280;68045;50.042;14.432;2023-06-22T09:38:08;98492.63;;;30.63;43.55
78717;BME280;68045;50.042;14.432;2023-06-22T09:42:09;98501.75;;;30.71;42.70
78717;BME280;68045;50.042;14.432;2023-06-22T09:46:10;98495.72;;;30.61;43.27
78717;BME280;68045;50.042;14.432;2023-06-22T09:50:11;98489.44;;;30.77;43.04
78717;BME280;68045;50.042;14.432;2023-06-22T09:54:12;98486.97;;;30.72;42.48
78717;BME280;68045;50.042;14.432;2023-06-22T09:58:13;98486.72;;;30.96;42.10
78717;BME280;68045;50.042;14.432;2023-06-22T10:02:14;98489.06;;;31.17;42.15
78717;BME280;68045;50.042;14.432;2023-06-22T10:06:15;98481.16;;;31.12;42.40
78717;BME280;68045;50.042;14.432;2023-06-22T10:10:16;98479.38;;;31.62;41.57
78717;BME280;68045;50.042;14.432;2023-06-22T10:14:17;98485.72;;;31.24;42.12
78717;BME280;68045;50.042;14.432;2023-06-22T10:18:18;98487.06;;;31.33;41.10
78717;BME280;68045;50.042;14.432;2023-06-22T10:22:19;98479.91;;;31.48;41.46
78717;BME280;68045;50.042;14.432;2023-06-22T10:26:21;98481.91;;;31.74;40.73
78717;BME280;68045;50.042;14.432;2023-06-22T10:30:22;98477.25;;;31.75;40.52
78717;BME280;68045;50.042;14.432;2023-06-22T10:34:22;98474.69;;;31.39;41.61
78717;BME280;68045;50.042;14.432;2023-06-22T10:38:23;98470.22;;;31.08;41.83
78717;BME280;68045;50.042;14.432;2023-06-22T10:42:24;98475.66;;;31.08;41.50
78717;BME280;68045;50.042;14.432;2023-06-22T10:46:25;98468.69;;;31.11;40.79
78717;BME280;68045;50.042;14.432;2023-06-22T10:50:26;98471.56;;;30.99;41.22
78717;BME280;68045;50.042;14.432;2023-06-22T10:54:27;98472.13;;;31.50;40.57
78717;BME280;68045;50.042;14.432;2023-06-22T10:58:29;98450.81;;;32.05;39.52
78717;BME280;68045;50.042;14.432;2023-06-22T11:02:31;98447.47;;;32.15;39.34
78717;BME280;68045;50.042;14.432;2023-06-22T11:06:31;98461.75;;;32.05;39.29
78717;BME280;68045;50.042;14.432;2023-06-22T11:10:33;98453.66;;;32.12;38.95
78717;BME280;68045;50.042;14.432;2023-06-22T11:14:34;98445.53;;;32.16;39.81
78717;BME280;68045;50.042;14.432;2023-06-22T11:18:35;98434.53;;;32.39;39.48
78717;BME280;68045;50.042;14.432;2023-06-22T11:22:40;98422.59;;;32.50;39.11
78717;BME280;68045;50.042;14.432;2023-06-22T11:26:41;98425.34;;;32.54;38.61
78717;BME280;68045;50.042;14.432;2023-06-22T11:30:42;98434.50;;;32.65;38.71
78717;BME280;68045;50.042;14.432;2023-06-22T11:34:43;98429.69;;;32.29;38.47
78717;BME280;68045;50.042;14.432;2023-06-22T11:38:44;98419.84;;;31.94;40.14
78717;BME280;68045;50.042;14.432;2023-06-22T11:42:45;98403.78;;;31.89;40.19
78717;BME280;68045;50.042;14.432;2023-06-22T11:46:45;98392.00;;;32.71;39.02
78717;BME280;68045;50.042;14.432;2023-06-22T11:50:46;98385.38;;;32.76;38.37
78717;BME280;68045;50.042;14.432;2023-06-22T11:54:47;98389.97;;;32.68;38.04
78717;BME280;68045;50.042;14.432;2023-06-22T11:58:48;98394.09;;;32.51;38.41
78717;BME280;68045;50.042;14.432;2023-06-22T12:02:50;98400.34;;;32.52;38.24
78717;BME280;68045;50.042;14.432;2023-06-22T12:06:52;98387.50;;;32.56;36.85
78717;BME280;68045;50.042;14.432;2023-06-22T12:10:52;98392.38;;;32.40;36.39
78717;BME280;68045;50.042;14.432;2023-06-22T12:14:54;98381.06;;;32.41;36.02
78717;BME280;68045;50.042;14.432;2023-06-22T12:18:55;98377.03;;;32.95;35.83
78717;BME280;68045;50.042;14.432;2023-06-22T12:22:58;98377.53;;;33.08;36.20
78717;BME280;68045;50.042;14.432;2023-06-22T12:26:58;98379.09;;;33.09;36.03
78717;BME280;68045;50.042;14.432;2023-06-22T12:30:59;98370.19;;;33.19;35.82
78717;BME280;68045;50.042;14.432;2023-06-22T12:35:00;98362.91;;;33.34;35.40
78717;BME280;68045;50.042;14.432;2023-06-22T12:39:01;98363.53;;;33.17;35.83
78717;BME280;68045;50.042;14.432;2023-06-22T12:43:02;98352.16;;;33.11;35.65
78717;BME280;68045;50.042;14.432;2023-06-22T12:47:03;98347.78;;;33.03;36.31
78717;BME280;68045;50.042;14.432;2023-06-22T12:51:04;98338.38;;;33.00;36.42
78717;BME280;68045;50.042;14.432;2023-06-22T12:55:05;98341.19;;;33.08;35.88
78717;BME280;68045;50.042;14.432;2023-06-22T12:59:06;98333.97;;;32.89;36.91
78717;BME280;68045;50.042;14.432;2023-06-22T13:03:07;98319.16;;;32.56;37.75
78717;BME280;68045;50.042;14.432;2023-06-22T13:07:08;98315.28;;;32.57;37.10
78717;BME280;68045;50.042;14.432;2023-06-22T13:11:09;98310.22;;;32.59;37.81
78717;BME280;68045;50.042;14.432;2023-06-22T13:15:10;98307.84;;;32.24;38.67
78717;BME280;68045;50.042;14.432;2023-06-22T13:19:11;98307.13;;;31.97;38.50
78717;BME280;68045;50.042;14.432;2023-06-22T13:23:12;98293.53;;;32.01;39.25
78717;BME280;68045;50.042;14.432;2023-06-22T13:27:13;98288.72;;;31.90;39.06
78717;BME280;68045;50.042;14.432;2023-06-22T13:31:14;98291.72;;;32.12;39.57
78717;BME280;68045;50.042;14.432;2023-06-22T13:35:15;98286.41;;;32.26;39.15
78717;BME280;68045;50.042;14.432;2023-06-22T13:39:16;98283.84;;;32.37;38.39
78717;BME280;68045;50.042;14.432;2023-06-22T13:43:17;98282.41;;;32.16;38.93
78717;BME280;68045;50.042;14.432;2023-06-22T13:47:18;98281.69;;;32.23;38.80
78717;BME280;68045;50.042;14.432;2023-06-22T13:51:19;98273.13;;;31.91;39.20
78717;BME280;68045;50.042;14.432;2023-06-22T13:55:20;98272.03;;;31.69;38.98
78717;BME280;68045;50.042;14.432;2023-06-22T13:59:21;98266.00;;;31.83;38.86
78717;BME280;68045;50.042;14.432;2023-06-22T14:03:23;98254.00;;;31.91;38.86
78717;BME280;68045;50.042;14.432;2023-06-22T14:07:24;98256.53;;;31.77;39.10
78717;BME280;68045;50.042;14.432;2023-06-22T14:11:25;98245.00;;;31.87;39.14
78717;BME280;68045;50.042;14.432;2023-06-22T14:15:26;98248.25;;;31.69;39.43
78717;BME280;68045;50.042;14.432;2023-06-22T14:19:27;98251.34;;;31.68;39.36
78717;BME280;68045;50.042;14.432;2023-06-22T14:23:27;98252.59;;;31.74;39.48
78717;BME280;68045;50.042;14.432;2023-06-22T14:27:29;98255.41;;;31.78;39.34
78717;BME280;68045;50.042;14.432;2023-06-22T14:31:30;98243.84;;;31.88;39.55
78717;BME280;68045;50.042;14.432;2023-06-22T14:35:31;98238.28;;;31.81;39.92
78717;BME280;68045;50.042;14.432;2023-06-22T14:39:33;98225.69;;;31.73;40.01
78717;BME280;68045;50.042;14.432;2023-06-22T14:43:34;98224.81;;;31.65;40.09
78717;BME280;68045;50.042;14.432;2023-06-22T14:47:34;98233.84;;;31.42;39.44
78717;BME280;68045;50.042;14.432;2023-06-22T14:51:35;98218.25;;;31.43;39.43
78717;BME280;68045;50.042;14.432;2023-06-22T14:55:36;98209.75;;;31.48;40.07
78717;BME280;68045;50.042;14.432;2023-06-22T14:59:37;98207.81;;;31.49;40.35
78717;BME280;68045;50.042;14.432;2023-06-22T15:03:38;98196.97;;;31.52;40.29
78717;BME280;68045;50.042;14.432;2023-06-22T15:07:39;98201.63;;;31.52;39.87
78717;BME280;68045;50.042;14.432;2023-06-22T15:11:40;98198.53;;;31.53;40.33
78717;BME280;68045;50.042;14.432;2023-06-22T15:15:41;98199.44;;;31.34;41.26
78717;BME280;68045;50.042;14.432;2023-06-22T15:19:42;98183.34;;;31.26;41.65
78717;BME280;68045;50.042;14.432;2023-06-22T15:23:43;98187.72;;;31.30;40.77
78717;BME280;68045;50.042;14.432;2023-06-22T15:27:44;98183.13;;;31.11;40.49
78717;BME280;68045;50.042;14.432;2023-06-22T15:31:45;98177.28;;;31.13;41.17
78717;BME280;68045;50.042;14.432;2023-06-22T15:35:46;98171.69;;;31.02;41.08
78717;BME280;68045;50.042;14.432;2023-06-22T15:39:47;98152.63;;;31.02;41.48
78717;BME280;68045;50.042;14.432;2023-06-22T15:43:48;98150.84;;;30.87;41.46
78717;BME280;68045;50.042;14.432;2023-06-22T15:47:49;98143.09;;;30.93;41.51
78717;BME280;68045;50.042;14.432;2023-06-22T15:51:49;98116.50;;;31.12;40.45
78717;BME280;68045;50.042;14.432;2023-06-22T15:55:51;98102.22;;;30.93;40.97
78717;BME280;68045;50.042;14.432;2023-06-22T15:59:53;98079.25;;;30.94;41.70
78717;BME280;68045;50.042;14.432;2023-06-22T16:03:54;98086.59;;;30.89;41.04
78717;BME280;68045;50.042;14.432;2023-06-22T16:07:55;98092.00;;;30.86;40.63
78717;BME280;68045;50.042;14.432;2023-06-22T16:11:57;98095.16;;;30.88;40.37
78717;BME280;68045;50.042;14.432;2023-06-22T16:15:57;98097.69;;;30.74;40.86
78717;BME280;68045;50.042;14.432;2023-06-22T16:19:58;98094.38;;;30.64;40.55
78717;BME280;68045;50.042;14.432;2023-06-22T16:24:00;98093.19;;;30.62;40.51
78717;BME280;68045;50.042;14.432;2023-06-22T16:28:00;98100.94;;;30.60;41.23
78717;BME280;68045;50.042;14.432;2023-06-22T16:32:03;98103.56;;;30.53;41.85
78717;BME280;68045;50.042;14.432;2023-06-22T16:36:04;98097.16;;;30.42;42.41
78717;BME280;68045;50.042;14.432;2023-06-22T16:40:05;98083.50;;;30.38;42.79
78717;BME280;68045;50.042;14.432;2023-06-22T16:44:06;98080.28;;;30.32;42.90
78717;BME280;68045;50.042;14.432;2023-06-22T16:48:07;98072.78;;;30.26;43.34
78717;BME280;68045;50.042;14.432;2023-06-22T16:52:08;98067.03;;;30.31;43.84
78717;BME280;68045;50.042;14.432;2023-06-22T16:56:10;98049.94;;;30.34;43.80
78717;BME280;68045;50.042;14.432;2023-06-22T17:00:11;98060.44;;;30.32;43.79
78717;BME280;68045;50.042;14.432;2023-06-22T17:04:16;98055.00;;;30.32;43.95
78717;BME280;68045;50.042;14.432;2023-06-22T17:08:19;98043.53;;;30.23;44.01
78717;BME280;68045;50.042;14.432;2023-06-22T17:12:22;98042.34;;;30.20;43.78
78717;BME280;68045;50.042;14.432;2023-06-22T17:16:25;98028.69;;;30.17;44.25
78717;BME280;68045;50.042;14.432;2023-06-22T17:20:28;98027.41;;;30.11;44.63
78717;BME280;68045;50.042;14.432;2023-06-22T17:24:29;98011.28;;;30.02;44.51
78717;BME280;68045;50.042;14.432;2023-06-22T17:28:49;98004.72;;;29.80;44.65
78717;BME280;68045;50.042;14.432;2023-06-22T17:32:50;98000.19;;;29.65;45.69
78717;BME280;68045;50.042;14.432;2023-06-22T17:36:51;97985.19;;;29.51;45.60
78717;BME280;68045;50.042;14.432;2023-06-22T17:41:00;97969.84;;;29.43;46.01
78717;BME280;68045;50.042;14.432;2023-06-22T17:45:03;97958.44;;;29.34;46.21
78717;BME280;68045;50.042;14.432;2023-06-22T17:49:07;97974.38;;;29.36;46.02
78717;BME280;68045;50.042;14.432;2023-06-22T17:53:10;97988.75;;;29.36;45.71
78717;BME280;68045;50.042;14.432;2023-06-22T17:57:16;97993.78;;;29.34;45.99
78717;BME280;68045;50.042;14.432;2023-06-22T18:01:36;97989.78;;;29.28;45.90
78717;BME280;68045;50.042;14.432;2023-06-22T18:05:45;98009.81;;;29.20;46.42
78717;BME280;68045;50.042;14.432;2023-06-22T18:09:47;98010.38;;;29.10;46.68
78717;BME280;68045;50.042;14.432;2023-06-22T18:13:48;98005.13;;;28.97;47.29
78717;BME280;68045;50.042;14.432;2023-06-22T18:17:50;98015.72;;;28.87;47.66
78717;BME280;68045;50.042;14.432;2023-06-22T18:21:52;98007.44;;;28.80;48.19
78717;BME280;68045;50.042;14.432;2023-06-22T18:25:53;97991.59;;;28.66;48.76
78717;BME280;68045;50.042;14.432;2023-06-22T18:29:55;97974.31;;;28.55;48.70
78717;BME280;68045;50.042;14.432;2023-06-22T18:33:57;97962.47;;;28.47;49.14
78717;BME280;68045;50.042;14.432;2023-06-22T18:37:59;97957.25;;;28.38;49.38
78717;BME280;68045;50.042;14.432;2023-06-22T18:42:02;97958.16;;;28.27;49.78
78717;BME280;68045;50.042;14.432;2023-06-22T18:50:36;97985.94;;;28.04;50.40
78717;BME280;68045;50.042;14.432;2023-06-22T18:58:41;98000.13;;;27.82;51.15
78717;BME280;68045;50.042;14.432;2023-06-22T19:02:47;97989.69;;;27.68;51.42
78717;BME280;68045;50.042;14.432;2023-06-22T19:06:58;98000.63;;;27.56;50.75
78717;BME280;68045;50.042;14.432;2023-06-22T19:11:11;98009.34;;;27.49;51.14
78717;BME280;68045;50.042;14.432;2023-06-22T19:15:13;98027.25;;;27.38;51.15
78717;BME280;68045;50.042;14.432;2023-06-22T19:19:15;98030.09;;;27.29;51.45
78717;BME280;68045;50.042;14.432;2023-06-22T19:23:24;98040.41;;;27.24;51.78
78717;BME280;68045;50.042;14.432;2023-06-22T19:27:29;98044.69;;;27.25;51.97
78717;BME280;68045;50.042;14.432;2023-06-22T19:31:31;98048.63;;;27.27;51.66
78717;BME280;68045;50.042;14.432;2023-06-22T19:35:32;98045.25;;;27.30;51.70
78717;BME280;68045;50.042;14.432;2023-06-22T19:39:36;98039.63;;;27.23;51.37
78717;BME280;68045;50.042;14.432;2023-06-22T19:43:37;98042.34;;;27.23;51.85
78717;BME280;68045;50.042;14.432;2023-06-22T19:47:39;98019.88;;;27.23;51.59
78717;BME280;68045;50.042;14.432;2023-06-22T19:51:40;97983.38;;;27.20;51.42
78717;BME280;68045;50.042;14.432;2023-06-22T19:55:43;97970.44;;;27.14;51.36
78717;BME280;68045;50.042;14.432;2023-06-22T19:59:44;97960.31;;;26.98;51.54
78717;BME280;68045;50.042;14.432;2023-06-22T20:03:46;97958.66;;;26.94;52.22
78717;BME280;68045;50.042;14.432;2023-06-22T20:07:48;97954.25;;;26.89;51.94
78717;BME280;68045;50.042;14.432;2023-06-22T20:11:55;97934.31;;;26.81;52.43
78717;BME280;68045;50.042;14.432;2023-06-22T20:15:56;97895.75;;;26.72;52.26
78717;BME280;68045;50.042;14.432;2023-06-22T20:19:57;97866.22;;;26.67;53.11
78717;BME280;68045;50.042;14.432;2023-06-22T20:24:09;97859.63;;;26.52;53.00
78717;BME280;68045;50.042;14.432;2023-06-22T20:28:12;97866.06;;;26.48;53.10
78717;BME280;68045;50.042;14.432;2023-06-22T20:32:13;97850.88;;;26.43;53.67
78717;BME280;68045;50.042;14.432;2023-06-22T20:36:14;97835.19;;;26.37;53.40
78717;BME280;68045;50.042;14.432;2023-06-22T20:40:17;97796.75;;;26.31;53.37
78717;BME280;68045;50.042;14.432;2023-06-22T20:44:18;97779.25;;;26.28;53.81
78717;BME280;68045;50.042;14.432;2023-06-22T20:48:20;97771.63;;;26.31;53.59
78717;BME280;68045;50.042;14.432;2023-06-22T20:52:22;97781.97;;;26.28;54.00
78717;BME280;68045;50.042;14.432;2023-06-22T20:56:23;97798.69;;;26.31;54.14
78717;BME280;68045;50.042;14.432;2023-06-22T21:00:24;97822.69;;;26.32;54.02
78717;BME280;68045;50.042;14.432;2023-06-22T21:04:25;97842.75;;;26.31;54.62
78717;BME280;68045;50.042;14.432;2023-06-22T21:08:26;97874.88;;;26.33;54.18
78717;BME280;68045;50.042;14.432;2023-06-22T21:12:27;97910.75;;;26.29;54.43